createdAt,value
2019-05-17T06:53:54.291Z,1007.58
2019-05-17T06:54:54.153Z,1007.59
2019-05-17T06:55:54.063Z,1007.66
2019-05-17T06:56:53.973Z,1007.65
2019-05-17T06:57:53.881Z,1007.67
2019-05-17T06:58:53.790Z,1007.68
2019-05-17T06:59:53.699Z,1007.68
2019-05-17T07:00:53.609Z,1007.67
2019-05-17T07:01:53.518Z,1007.66
2019-05-17T07:02:53.433Z,1007.68
2019-05-17T07:03:53.338Z,1007.67
2019-05-17T07:04:53.252Z,1007.71
2019-05-17T07:05:53.155Z,1007.74
2019-05-17T07:06:53.066Z,1007.75
2019-05-17T07:07:52.975Z,1007.75
2019-05-17T07:08:52.885Z,1007.75
2019-05-17T07:09:52.796Z,1007.72
2019-05-17T07:10:52.704Z,1007.70
2019-05-17T07:11:52.614Z,1007.71
2019-05-17T07:12:58.546Z,1007.72
2019-05-17T07:13:52.432Z,1007.69
2019-05-17T07:14:52.347Z,1007.68
2019-05-17T07:15:52.333Z,1007.69
2019-05-17T07:16:52.165Z,1007.71
2019-05-17T07:17:52.069Z,1007.66
2019-05-17T07:18:51.980Z,1007.68
2019-05-17T07:19:51.889Z,1007.64
2019-05-17T07:20:51.800Z,1007.62
2019-05-17T07:21:51.714Z,1007.64
2019-05-17T07:22:51.615Z,1007.61
2019-05-17T07:23:51.524Z,1007.63
2019-05-17T07:24:51.437Z,1007.61
2019-05-17T07:25:51.344Z,1007.63
2019-05-17T07:26:51.254Z,1007.64
2019-05-17T07:27:51.164Z,1007.61
2019-05-17T07:28:51.073Z,1007.65
2019-05-17T07:29:50.981Z,1007.62
2019-05-17T07:30:50.889Z,1007.64
2019-05-17T07:31:50.799Z,1007.61
2019-05-17T07:32:50.711Z,1007.57
2019-05-17T07:33:50.615Z,1007.55
2019-05-17T07:34:50.873Z,1007.52
2019-05-17T07:35:50.434Z,1007.52
2019-05-17T07:36:50.446Z,1007.56
2019-05-17T07:37:50.300Z,1007.57
2019-05-17T07:38:50.500Z,1007.53
2019-05-17T07:40:00.461Z,1007.53
2019-05-17T07:40:50.325Z,1007.61
2019-05-17T07:41:49.887Z,1007.56
2019-05-17T07:42:50.122Z,1007.56
2019-05-17T07:43:49.837Z,1007.55
2019-05-17T07:44:49.772Z,1007.56
2019-05-17T07:45:49.663Z,1007.60
2019-05-17T07:46:51.818Z,1007.55
2019-05-17T07:47:49.470Z,1007.49
2019-05-17T07:48:49.761Z,1007.41
2019-05-17T07:49:49.477Z,1007.40
2019-05-17T07:50:50.363Z,1007.33
2019-05-17T07:51:50.295Z,1007.27
2019-05-17T07:52:50.014Z,1007.23
2019-05-17T07:57:49.599Z,1007.04
2019-05-17T07:58:49.484Z,1007.04
2019-05-17T09:08:41.626Z,1006.71
2019-05-17T09:09:41.535Z,1006.70
2019-05-17T09:10:41.442Z,1006.68
2019-05-17T09:11:41.349Z,1006.71
2019-05-17T09:12:41.296Z,1006.46
2019-05-17T09:13:54.360Z,1006.49
2019-05-17T09:14:41.077Z,1006.49
2019-05-17T09:15:40.987Z,1006.47
2019-05-17T09:16:40.904Z,1006.46
2019-05-17T09:17:40.806Z,1006.56
2019-05-17T09:18:40.717Z,1006.61
2019-05-17T09:19:40.627Z,1006.63
2019-05-17T09:20:40.784Z,1006.54
2019-05-17T09:21:40.443Z,1006.37
2019-05-17T09:22:40.354Z,1006.55
2019-05-17T09:23:40.261Z,1006.45
2019-05-17T09:24:40.186Z,1006.45
2019-05-17T09:25:40.122Z,1006.52
2019-05-17T09:26:40.093Z,1006.50
2019-05-17T09:27:39.994Z,1006.50
2019-05-17T09:28:39.810Z,1006.48
2019-05-17T09:29:40.372Z,1006.51
2019-05-17T09:30:40.508Z,1006.63
2019-05-17T09:31:40.387Z,1006.47
2019-05-17T09:32:40.435Z,1006.46
2019-05-17T09:33:40.647Z,1006.59
2019-05-17T09:34:40.463Z,1006.60
2019-05-17T09:35:40.908Z,1006.42
2019-05-17T09:36:40.890Z,1006.39
2019-05-17T09:37:41.338Z,1006.41
2019-05-17T09:38:40.346Z,1006.48
2019-05-17T09:39:40.107Z,1006.39
2019-05-17T09:40:40.160Z,1006.54
2019-05-17T09:41:39.780Z,1006.49
2019-05-17T09:42:40.743Z,1006.38
2019-05-17T09:43:40.268Z,1006.36
2019-05-17T09:44:40.242Z,1006.34
2019-05-17T09:45:40.308Z,1006.30
2019-05-17T09:46:39.593Z,1006.30
2019-05-17T09:47:39.768Z,1006.35
2019-05-17T09:48:39.654Z,1006.46
2019-05-17T09:49:39.486Z,1006.28
2019-05-17T09:50:39.908Z,1006.24
2019-05-17T09:51:39.567Z,1006.25
2019-05-17T09:52:40.253Z,1006.26
2019-05-17T09:53:39.928Z,1006.28
2019-05-17T09:54:42.334Z,1006.23
2019-05-17T09:55:39.517Z,1006.30
2019-05-17T09:56:39.347Z,1006.36
2019-05-17T09:57:37.218Z,1006.23
2019-05-17T09:58:39.517Z,1006.26
2019-05-17T09:59:37.038Z,1006.22
2019-05-17T10:00:36.947Z,1006.30
2019-05-17T10:01:39.293Z,1006.31
2019-05-17T10:02:36.764Z,1006.25
2019-05-17T10:03:36.674Z,1006.22
2019-05-17T10:04:36.586Z,1006.23
2019-05-17T10:05:36.494Z,1006.21
2019-05-17T10:06:36.402Z,1006.26
2019-05-17T10:07:36.313Z,1006.24
2019-05-17T10:08:36.225Z,1006.29
2019-05-17T10:09:36.135Z,1006.22
2019-05-17T10:10:36.089Z,1006.19
2019-05-17T10:11:35.962Z,1006.07
2019-05-17T10:12:35.867Z,1006.04
2019-05-17T10:13:35.780Z,1006.09
2019-05-17T10:14:35.695Z,1006.21
2019-05-17T10:15:35.605Z,1006.16
2019-05-17T10:16:35.524Z,1006.10
2019-05-17T10:17:35.431Z,1006.07
2019-05-17T10:18:35.344Z,1006.02
2019-05-17T10:19:35.259Z,1006.04
2019-05-17T10:20:35.173Z,1006.04
2019-05-17T10:21:35.084Z,1006.17
2019-05-17T10:22:34.996Z,1006.04
2019-05-17T10:23:34.910Z,1006.04
2019-05-17T10:24:38.810Z,1006.07
2019-05-17T10:25:34.736Z,1006.05
2019-05-17T10:26:34.650Z,1006.07
2019-05-17T10:27:34.559Z,1006.08
2019-05-17T10:28:34.469Z,1005.99
2019-05-17T10:29:34.382Z,1006.04
2019-05-17T10:30:34.294Z,1005.99
2019-05-17T10:31:34.208Z,1006.06
2019-05-17T10:32:34.118Z,1006.08
2019-05-17T10:33:34.085Z,1006.05
2019-05-17T10:34:34.014Z,1006.08
2019-05-17T10:35:33.846Z,1006.10
2019-05-17T10:36:33.760Z,1006.12
2019-05-17T10:37:33.671Z,1006.12
2019-05-17T10:38:33.579Z,1006.31
2019-05-17T10:39:33.490Z,1006.28
2019-05-17T10:40:33.399Z,1005.97
2019-05-17T10:41:33.307Z,1006.06
2019-05-17T10:42:33.221Z,1006.08
2019-05-17T10:43:33.130Z,1006.08
2019-05-17T10:44:44.314Z,1006.06
2019-05-17T10:45:32.950Z,1006.03
2019-05-17T10:46:32.857Z,1006.06
2019-05-17T10:47:32.768Z,1006.07
2019-05-17T10:48:32.676Z,1006.12
2019-05-17T10:49:32.586Z,1006.06
2019-05-17T10:50:32.494Z,1006.06
2019-05-17T10:51:32.403Z,1006.05
2019-05-17T10:52:32.318Z,1006.04
2019-05-17T10:53:32.220Z,1006.04
2019-05-17T10:54:32.129Z,1006.06
2019-05-17T10:55:32.063Z,1006.07
2019-05-17T10:56:32.018Z,1006.08
2019-05-17T10:57:31.853Z,1006.06
2019-05-17T10:58:31.764Z,1006.09
2019-05-17T10:59:31.669Z,1006.08
2019-05-17T11:00:31.582Z,1006.05
2019-05-17T11:01:31.488Z,1006.06
2019-05-17T11:02:31.402Z,1006.05
2019-05-17T11:03:31.306Z,1006.03
2019-05-17T11:04:31.214Z,1006.03
2019-05-17T11:05:31.121Z,1006.03
2019-05-17T11:06:31.031Z,1006.03
2019-05-17T11:07:30.941Z,1006.04
2019-05-17T11:08:30.849Z,1006.04
2019-05-17T11:09:31.166Z,1006.05
2019-05-17T11:10:30.670Z,1006.02
2019-05-17T11:11:30.574Z,1006.06
2019-05-17T11:12:30.485Z,1006.02
2019-05-17T11:13:30.390Z,1006.03
2019-05-17T11:14:30.300Z,1006.04
2019-05-17T11:15:30.208Z,1006.02
2019-05-17T11:16:30.116Z,1006.04
2019-05-17T11:17:30.040Z,1006.01
2019-05-17T11:18:29.968Z,1006.02
2019-05-17T11:19:29.839Z,1006.03
2019-05-17T11:20:29.747Z,1006.01
2019-05-17T11:21:29.656Z,1006.00
2019-05-17T11:22:29.566Z,1006.03
2019-05-17T11:23:29.477Z,1006.02
2019-05-17T11:24:29.380Z,1005.97
2019-05-17T11:25:29.289Z,1006.03
2019-05-17T11:26:29.200Z,1006.01
2019-05-17T11:27:29.104Z,1006.01
2019-05-17T11:28:29.013Z,1005.98
2019-05-17T11:29:28.919Z,1005.99
2019-05-17T11:30:28.829Z,1006.00
2019-05-17T11:31:28.738Z,1005.99
2019-05-17T11:32:28.646Z,1006.01
2019-05-17T11:33:28.558Z,1005.98
2019-05-17T11:34:28.459Z,1006.00
2019-05-17T11:35:28.370Z,1005.96
2019-05-17T11:36:28.279Z,1005.97
2019-05-17T11:37:28.182Z,1005.96
2019-05-17T11:38:28.089Z,1005.96
2019-05-17T11:39:28.009Z,1005.92
2019-05-17T11:40:27.940Z,1005.92
2019-05-17T11:41:27.810Z,1005.96
2019-05-17T11:42:27.717Z,1005.99
2019-05-17T11:43:27.625Z,1005.98
2019-05-17T11:44:27.533Z,1005.95
2019-05-17T11:45:30.275Z,1005.98
2019-05-17T11:46:35.831Z,1005.97
2019-05-17T11:47:27.253Z,1005.97
2019-05-17T11:48:27.160Z,1005.97
2019-05-17T11:49:27.067Z,1005.91
2019-05-17T11:50:26.988Z,1005.89
2019-05-17T11:51:27.448Z,1005.91
2019-05-17T11:52:26.789Z,1005.90
2019-05-17T11:53:26.696Z,1005.90
2019-05-17T11:54:26.605Z,1005.91
2019-05-17T11:55:26.513Z,1005.89
2019-05-17T11:56:26.422Z,1005.90
2019-05-17T11:57:26.324Z,1005.86
2019-05-17T11:58:26.231Z,1005.85
2019-05-17T11:59:26.137Z,1005.84
2019-05-17T12:00:26.048Z,1005.86
2019-05-17T12:01:25.991Z,1005.83
2019-05-17T12:02:25.925Z,1005.90
2019-05-17T12:03:25.768Z,1005.89
2019-05-17T12:04:25.676Z,1005.90
2019-05-17T12:05:25.583Z,1005.86
2019-05-17T12:06:25.491Z,1005.84
2019-05-17T12:07:25.395Z,1005.85
2019-05-17T12:08:25.301Z,1005.83
2019-05-17T12:09:36.387Z,1005.80
2019-05-17T12:10:25.130Z,1005.78
2019-05-17T12:11:25.025Z,1005.74
2019-05-17T12:12:24.937Z,1005.71
2019-05-17T12:13:24.836Z,1005.69
2019-05-17T12:14:24.750Z,1005.65
2019-05-17T12:15:24.651Z,1005.67
2019-05-17T12:16:24.560Z,1005.60
2019-05-17T12:17:24.464Z,1005.63
2019-05-17T12:18:24.371Z,1005.63
2019-05-17T12:19:24.279Z,1005.61
2019-05-17T12:20:24.186Z,1005.63
2019-05-17T12:21:24.093Z,1005.64
2019-05-17T12:22:24.001Z,1005.62
2019-05-17T12:23:23.986Z,1005.61
2019-05-17T12:24:23.882Z,1005.55
2019-05-17T12:25:23.728Z,1005.57
2019-05-17T12:26:23.630Z,1005.58
2019-05-17T12:27:23.536Z,1005.55
2019-05-17T12:28:23.444Z,1005.56
2019-05-17T12:29:23.351Z,1005.55
